Time;durP1;ratioP1;P1;durP2;ratioP2;P2;SDS_P1;SDS_P2;PMS_P1;PMS_P2;Temp;Humidity;BMP_temperature;BMP_pressure;BME280_temperature;BME280_humidity;BME280_pressure;Samples;Min_cycle;Max_cycle;Signal;HPM_P1;HPM_P2
2023/12/27 05:01:16;;;;;;;8.03;1.73;;;1.70;97.30;;;;;;5742595;23;20507;-84
2023/12/27 05:03:44;;;;;;;1.10;1.00;;;1.70;97.30;;;;;;4990692;28;21145;-87
2023/12/27 05:06:10;;;;;;;2.07;1.40;;;1.70;97.30;;;;;;4994128;28;20704;-87
2023/12/27 05:08:41;;;;;;;1.10;1.00;;;1.70;97.30;;;;;;4996864;28;20437;-87
2023/12/27 05:11:11;;;;;;;1.10;1.00;;;1.70;97.30;;;;;;4991375;28;20445;-87
2023/12/27 05:13:36;;;;;;;1.10;1.00;;;1.70;97.30;;;;;;4998473;28;20439;-85
2023/12/27 05:16:07;;;;;;;1.10;1.00;;;1.60;97.30;;;;;;4993524;28;20486;-87
2023/12/27 05:18:33;;;;;;;1.10;1.00;;;1.60;97.30;;;;;;4991193;28;20197;-85
2023/12/27 05:21:00;;;;;;;1.20;1.10;;;1.50;97.30;;;;;;4993859;28;20444;-86
2023/12/27 05:23:26;;;;;;;1.10;1.00;;;1.50;97.30;;;;;;4999891;28;20184;-84
2023/12/27 05:25:51;;;;;;;1.10;1.00;;;1.50;97.30;;;;;;4999128;28;20507;-87
2023/12/27 05:28:17;;;;;;;1.10;1.00;;;1.50;97.30;;;;;;4989627;28;20185;-86
2023/12/27 05:30:42;;;;;;;1.10;1.00;;;1.50;97.30;;;;;;4997554;28;20220;-85
2023/12/27 05:33:08;;;;;;;1.10;1.00;;;1.40;97.30;;;;;;4993442;28;20171;-87
2023/12/27 05:35:33;;;;;;;1.00;0.90;;;1.40;97.30;;;;;;4995780;28;20594;-87
2023/12/27 05:37:59;;;;;;;1.40;1.30;;;1.40;97.30;;;;;;4999311;28;20192;-87
2023/12/27 05:40:25;;;;;;;1.37;1.27;;;1.30;97.30;;;;;;5009771;28;20667;-87
2023/12/27 05:42:50;;;;;;;1.10;1.00;;;1.30;97.30;;;;;;4994372;28;20445;-87
2023/12/27 05:45:16;;;;;;;1.17;1.07;;;1.20;97.30;;;;;;4998702;28;20232;-84
2023/12/27 05:47:41;;;;;;;1.07;0.97;;;1.20;97.30;;;;;;4991433;28;20193;-86
2023/12/27 05:50:09;;;;;;;1.20;1.10;;;1.20;97.30;;;;;;4996343;28;20181;-85
2023/12/27 05:52:34;;;;;;;1.30;1.20;;;1.20;97.30;;;;;;5002717;28;20206;-84
2023/12/27 05:55:00;;;;;;;1.20;1.10;;;1.20;97.30;;;;;;4996177;28;20425;-86
2023/12/27 05:57:25;;;;;;;3.80;2.13;;;1.20;97.30;;;;;;5001977;28;20188;-87
2023/12/27 05:59:51;;;;;;;1.23;1.13;;;1.10;97.30;;;;;;5003304;28;20235;-87
2023/12/27 06:02:17;;;;;;;1.10;1.00;;;1.10;97.30;;;;;;5003167;28;20250;-86
2023/12/27 06:04:42;;;;;;;1.43;1.33;;;1.10;97.30;;;;;;4999877;28;21053;-86
2023/12/27 06:07:08;;;;;;;1.40;1.30;;;1.00;97.30;;;;;;4996311;28;20647;-85
2023/12/27 06:09:33;;;;;;;1.10;1.00;;;1.00;97.30;;;;;;5002987;28;20180;-86
2023/12/27 06:11:59;;;;;;;1.20;1.10;;;1.00;97.30;;;;;;4994944;28;20699;-84
2023/12/27 06:14:24;;;;;;;1.00;0.90;;;1.00;97.30;;;;;;4994644;28;20232;-86
2023/12/27 06:16:50;;;;;;;1.20;1.10;;;0.90;97.30;;;;;;4994734;28;20177;-86
2023/12/27 06:19:16;;;;;;;1.10;1.00;;;0.90;97.30;;;;;;5002577;28;20186;-87
2023/12/27 06:21:41;;;;;;;1.20;1.10;;;0.80;97.30;;;;;;5001619;28;20205;-85
2023/12/27 06:24:07;;;;;;;1.40;1.30;;;0.90;97.30;;;;;;5004524;28;20456;-85
2023/12/27 06:26:33;;;;;;;1.37;1.23;;;0.90;97.30;;;;;;4995501;28;20178;-86
2023/12/27 06:28:58;;;;;;;1.10;1.00;;;0.90;97.30;;;;;;4994972;28;20423;-84
2023/12/27 06:31:24;;;;;;;1.07;0.97;;;0.90;97.30;;;;;;5006296;28;20208;-85
2023/12/27 06:33:49;;;;;;;7.20;1.93;;;0.90;97.30;;;;;;5014511;28;20509;-86
2023/12/27 06:36:15;;;;;;;1.10;1.00;;;0.90;97.30;;;;;;5003433;28;20597;-85
2023/12/27 06:38:40;;;;;;;1.10;1.00;;;0.90;97.30;;;;;;5001220;28;20189;-85
2023/12/27 06:41:07;;;;;;;1.40;1.30;;;0.80;97.30;;;;;;5004164;28;20213;-84
2023/12/27 06:43:33;;;;;;;1.20;1.10;;;0.80;97.30;;;;;;4995033;28;20236;-86
2023/12/27 06:45:58;;;;;;;1.10;1.00;;;0.80;97.30;;;;;;4996360;28;20996;-86
2023/12/27 06:48:24;;;;;;;1.20;1.10;;;0.90;97.30;;;;;;4993869;28;20417;-83
2023/12/27 06:50:50;;;;;;;1.10;1.00;;;0.90;97.30;;;;;;4993286;28;20221;-86
2023/12/27 06:53:15;;;;;;;1.10;1.00;;;0.90;97.30;;;;;;5002940;28;20189;-85
2023/12/27 06:55:41;;;;;;;1.37;1.27;;;0.80;97.30;;;;;;4998536;28;20182;-85
2023/12/27 06:58:06;;;;;;;1.10;1.00;;;0.80;97.30;;;;;;4997849;28;20273;-86
2023/12/27 07:00:32;;;;;;;1.97;1.87;;;0.70;97.30;;;;;;4997210;28;20185;-84
2023/12/27 07:02:59;;;;;;;1.30;1.20;;;0.70;97.30;;;;;;5005307;28;20190;-85
2023/12/27 07:05:24;;;;;;;1.10;1.00;;;0.70;97.30;;;;;;5007724;28;20272;-84
2023/12/27 07:07:50;;;;;;;1.37;1.27;;;0.70;97.30;;;;;;5001528;28;20437;-85
2023/12/27 07:10:15;;;;;;;1.10;1.00;;;0.70;97.30;;;;;;4999014;28;20885;-85
2023/12/27 07:12:41;;;;;;;1.37;1.27;;;0.70;97.30;;;;;;4999074;28;20202;-84
2023/12/27 07:15:11;;;;;;;1.23;1.13;;;0.70;97.30;;;;;;5006750;28;20232;-87
2023/12/27 07:17:36;;;;;;;1.30;1.20;;;0.70;97.30;;;;;;5005030;28;20185;-87
2023/12/27 07:20:02;;;;;;;1.30;1.20;;;0.70;97.30;;;;;;5007078;28;20563;-87
2023/12/27 07:22:28;;;;;;;1.30;1.20;;;0.70;97.30;;;;;;4995679;28;20198;-84
2023/12/27 07:24:53;;;;;;;1.10;1.00;;;0.70;97.30;;;;;;4994294;28;20560;-84
2023/12/27 07:27:19;;;;;;;1.10;1.00;;;0.70;97.30;;;;;;4995450;28;20177;-85
2023/12/27 07:29:44;;;;;;;2.13;1.70;;;0.70;97.30;;;;;;5001295;28;20690;-85
2023/12/27 07:32:10;;;;;;;1.93;1.83;;;0.70;97.30;;;;;;4995644;28;20209;-85
2023/12/27 07:34:35;;;;;;;1.20;1.10;;;0.80;97.30;;;;;;4998869;28;20197;-85
2023/12/27 07:37:01;;;;;;;1.37;1.27;;;0.70;97.30;;;;;;4997122;28;20740;-85
2023/12/27 07:39:26;;;;;;;1.20;1.10;;;0.80;97.30;;;;;;5002097;28;20182;-85
2023/12/27 07:41:52;;;;;;;2.90;1.47;;;0.80;97.30;;;;;;4995971;28;20213;-84
2023/12/27 07:44:19;;;;;;;1.73;1.60;;;0.80;97.30;;;;;;4994104;28;20217;-86
2023/12/27 07:46:44;;;;;;;1.70;1.40;;;0.80;97.30;;;;;;4999918;28;20655;-85
2023/12/27 07:49:10;;;;;;;2.83;1.93;;;0.80;97.30;;;;;;4994877;28;20449;-87
2023/12/27 07:51:35;;;;;;;1.00;0.90;;;0.90;97.30;;;;;;4993873;28;20206;-87
2023/12/27 07:54:01;;;;;;;1.10;1.00;;;0.90;97.30;;;;;;4993076;28;20222;-87
2023/12/27 07:56:27;;;;;;;1.10;1.00;;;0.90;97.30;;;;;;4993995;28;20248;-87
2023/12/27 07:58:53;;;;;;;1.00;0.90;;;1.00;97.30;;;;;;5000956;28;20201;-84
2023/12/27 08:01:19;;;;;;;1.37;1.27;;;1.00;97.30;;;;;;4990685;28;20480;-87
2023/12/27 08:03:45;;;;;;;1.10;1.00;;;1.00;97.30;;;;;;5000844;28;20875;-87
2023/12/27 08:06:10;;;;;;;1.20;1.10;;;1.10;97.30;;;;;;4995758;28;20477;-87
2023/12/27 08:08:36;;;;;;;1.10;1.00;;;1.10;97.30;;;;;;4993254;28;20178;-86
2023/12/27 08:11:03;;;;;;;1.00;0.90;;;1.20;97.30;;;;;;4992722;28;20204;-85
2023/12/27 08:13:29;;;;;;;2.33;2.13;;;1.20;97.30;;;;;;4996963;28;20177;-85
2023/12/27 08:15:56;;;;;;;1.10;1.00;;;1.20;97.30;;;;;;4995844;28;20555;-86
2023/12/27 08:18:22;;;;;;;1.20;1.10;;;1.30;97.30;;;;;;4996791;28;20571;-85
2023/12/27 08:20:47;;;;;;;1.20;1.10;;;1.30;97.30;;;;;;4996689;28;20543;-84
2023/12/27 08:23:16;;;;;;;1.90;1.87;;;1.40;97.30;;;;;;4993076;28;20212;-85
2023/12/27 08:25:44;;;;;;;2.60;1.83;;;1.40;97.30;;;;;;4993647;28;20226;-85
2023/12/27 08:28:10;;;;;;;1.10;1.00;;;1.40;97.30;;;;;;4992127;28;20424;-86
2023/12/27 08:30:36;;;;;;;1.10;1.00;;;1.50;97.30;;;;;;4994322;28;20437;-86
2023/12/27 08:33:06;;;;;;;1.47;1.37;;;1.50;97.30;;;;;;4994280;28;20265;-85
2023/12/27 08:35:32;;;;;;;1.13;1.03;;;1.60;97.30;;;;;;5002233;28;20431;-85
2023/12/27 08:37:58;;;;;;;2.60;2.40;;;1.70;97.30;;;;;;4995462;28;20934;-86
2023/12/27 08:40:23;;;;;;;1.47;1.37;;;1.80;97.30;;;;;;5002916;28;20504;-86
2023/12/27 08:42:49;;;;;;;1.10;1.00;;;1.90;97.30;;;;;;4994627;28;20248;-85
2023/12/27 08:45:15;;;;;;;1.50;1.40;;;2.00;97.30;;;;;;4999900;28;20228;-85
2023/12/27 08:47:41;;;;;;;3.37;1.50;;;2.10;97.30;;;;;;4999802;28;20189;-85
2023/12/27 08:50:07;;;;;;;1.60;1.50;;;2.20;97.30;;;;;;5000329;28;20181;-86
2023/12/27 08:52:32;;;;;;;2.03;1.70;;;2.40;97.30;;;;;;4992482;28;20583;-87
2023/12/27 08:54:58;;;;;;;1.20;1.10;;;2.40;97.30;;;;;;4999497;28;20432;-86
2023/12/27 08:57:23;;;;;;;1.10;1.00;;;2.60;97.30;;;;;;4992107;28;20194;-86
2023/12/27 08:59:49;;;;;;;1.00;0.90;;;2.60;97.30;;;;;;4995154;28;20237;-84
2023/12/27 09:02:14;;;;;;;2.60;2.40;;;2.70;97.30;;;;;;4993424;28;20322;-87
2023/12/27 09:04:40;;;;;;;1.67;1.60;;;2.80;97.30;;;;;;4996895;28;20225;-84
2023/12/27 09:07:06;;;;;;;2.27;1.13;;;2.90;97.30;;;;;;5001587;28;20598;-84
2023/12/27 09:09:31;;;;;;;2.00;1.87;;;3.00;97.30;;;;;;4994193;28;20198;-86
2023/12/27 09:11:57;;;;;;;3.10;2.90;;;3.00;97.30;;;;;;4999973;28;20198;-82
2023/12/27 09:14:22;;;;;;;1.10;1.00;;;3.10;97.30;;;;;;4997952;28;20188;-86
2023/12/27 09:16:48;;;;;;;1.93;1.63;;;3.10;97.30;;;;;;4993614;28;20553;-86
2023/12/27 09:19:13;;;;;;;1.33;1.20;;;3.20;97.30;;;;;;4993492;28;20224;-85
2023/12/27 09:21:45;;;;;;;1.97;1.87;;;3.30;97.30;;;;;;4993908;28;20212;-86
2023/12/27 09:24:11;;;;;;;1.20;1.20;;;3.40;97.30;;;;;;4996126;28;20256;-86
2023/12/27 09:26:37;;;;;;;2.90;2.27;;;3.50;97.30;;;;;;4995137;28;20918;-84
2023/12/27 09:29:02;;;;;;;1.40;1.30;;;3.60;97.30;;;;;;4994861;28;20198;-87
2023/12/27 09:31:30;;;;;;;1.63;1.53;;;3.80;97.30;;;;;;5006344;28;20564;-85
2023/12/27 09:33:56;;;;;;;1.90;1.80;;;3.90;97.30;;;;;;4995341;28;20181;-87
2023/12/27 09:36:22;;;;;;;1.50;1.40;;;4.00;97.30;;;;;;4988947;28;20431;-85
2023/12/27 09:38:47;;;;;;;1.40;1.30;;;4.00;97.30;;;;;;4976192;28;20812;-85
2023/12/27 09:41:13;;;;;;;4.40;2.43;;;4.10;97.30;;;;;;4989685;28;20202;-85
2023/12/27 09:43:41;;;;;;;1.67;1.57;;;4.20;97.30;;;;;;4996311;28;20586;-85
2023/12/27 09:46:09;;;;;;;1.20;1.10;;;4.30;97.30;;;;;;4995277;28;20435;-86
2023/12/27 09:48:40;;;;;;;1.33;1.23;;;4.40;97.30;;;;;;4979719;28;20635;-86
2023/12/27 09:51:06;;;;;;;1.10;1.00;;;4.50;97.30;;;;;;4987375;28;20436;-86
2023/12/27 09:53:32;;;;;;;2.43;2.23;;;4.60;97.30;;;;;;4983104;28;20412;-85
2023/12/27 09:55:59;;;;;;;1.00;0.90;;;4.70;97.30;;;;;;4977641;28;20421;-87
2023/12/27 09:58:28;;;;;;;1.17;1.07;;;4.80;97.30;;;;;;4988253;28;20445;-85
2023/12/27 10:00:56;;;;;;;1.07;0.97;;;4.90;97.30;;;;;;4984466;28;20531;-85
2023/12/27 10:03:35;;;;;;;1.53;1.43;;;5.00;97.30;;;;;;4985541;28;20464;-87
2023/12/27 10:06:18;;;;;;;7.53;2.60;;;5.10;97.30;;;;;;4979049;28;20504;-86
2023/12/27 10:08:44;;;;;;;1.93;1.83;;;5.20;97.30;;;;;;4985946;28;20421;-85
2023/12/27 10:11:11;;;;;;;1.33;1.27;;;5.20;97.30;;;;;;4989218;28;20425;-84
2023/12/27 10:13:39;;;;;;;1.97;1.93;;;5.30;97.30;;;;;;4985413;28;20475;-86
2023/12/27 10:16:04;;;;;;;1.23;1.13;;;5.40;97.30;;;;;;4988425;28;20409;-86
2023/12/27 10:18:31;;;;;;;1.77;1.27;;;5.50;97.30;;;;;;4987249;28;20512;-86
2023/12/27 10:20:56;;;;;;;2.77;2.00;;;5.60;97.30;;;;;;4987127;28;20205;-87
2023/12/27 10:23:22;;;;;;;1.00;0.90;;;5.80;97.30;;;;;;4989112;28;20857;-87
2023/12/27 10:25:50;;;;;;;2.23;2.03;;;5.90;97.30;;;;;;4988625;28;20334;-87
2023/12/27 10:28:16;;;;;;;1.67;1.57;;;6.00;97.30;;;;;;4986332;28;20863;-86
2023/12/27 10:30:41;;;;;;;1.60;1.50;;;6.10;97.30;;;;;;4989232;28;20477;-87
2023/12/27 10:33:07;;;;;;;1.50;1.30;;;6.30;97.30;;;;;;4986780;28;20193;-86
2023/12/27 10:35:34;;;;;;;1.73;1.37;;;6.40;97.30;;;;;;4995293;28;20188;-86
2023/12/27 10:38:04;;;;;;;4.10;3.07;;;6.60;97.30;;;;;;4991690;28;20264;-86
2023/12/27 10:40:31;;;;;;;1.77;1.63;;;6.70;97.30;;;;;;4982564;28;20421;-86
2023/12/27 10:42:57;;;;;;;2.87;1.33;;;6.80;97.30;;;;;;4980358;28;20461;-86
2023/12/27 10:45:22;;;;;;;1.47;1.40;;;6.90;97.30;;;;;;4988801;28;20467;-84
2023/12/27 10:47:51;;;;;;;1.30;1.20;;;7.10;97.30;;;;;;4985160;28;20414;-86
2023/12/27 10:50:20;;;;;;;1.00;0.90;;;7.20;97.30;;;;;;4984738;28;20613;-87
2023/12/27 10:52:55;;;;;;;1.53;1.43;;;7.40;97.30;;;;;;4987740;28;20457;-86
2023/12/27 10:55:23;;;;;;;1.77;1.67;;;7.50;97.30;;;;;;5010844;28;20444;-84
2023/12/27 10:57:54;;;;;;;3.90;2.23;;;7.60;97.30;;;;;;4985110;28;20962;-88
2023/12/27 11:00:21;;;;;;;1.60;1.50;;;7.80;97.30;;;;;;4986103;28;20417;-86
2023/12/27 11:02:47;;;;;;;1.67;1.67;;;7.90;97.30;;;;;;4984624;28;20986;-86
2023/12/27 11:05:19;;;;;;;1.70;1.60;;;7.90;97.30;;;;;;4988716;28;20563;-87
2023/12/27 11:07:46;;;;;;;1.20;1.10;;;8.00;97.30;;;;;;4992982;28;21082;-87
2023/12/27 11:10:14;;;;;;;1.13;1.07;;;8.10;97.30;;;;;;4985983;28;20456;-86
2023/12/27 11:12:44;;;;;;;1.10;1.00;;;8.10;97.30;;;;;;4987994;28;20433;-87
2023/12/27 11:15:11;;;;;;;1.10;1.10;;;8.00;97.30;;;;;;4993176;28;20790;-86
2023/12/27 11:17:39;;;;;;;3.70;1.70;;;8.00;97.30;;;;;;4993189;28;20440;-85
2023/12/27 11:20:10;;;;;;;2.87;1.33;;;8.10;97.30;;;;;;4989336;28;20428;-86
2023/12/27 11:22:36;;;;;;;1.23;1.13;;;8.10;97.30;;;;;;4981392;28;20445;-86
2023/12/27 11:25:04;;;;;;;1.50;1.13;;;8.10;97.30;;;;;;4989147;28;20467;-87
2023/12/27 11:27:31;;;;;;;4.50;1.97;;;8.20;97.30;;;;;;4985672;28;20600;-86
2023/12/27 11:29:57;;;;;;;1.00;0.90;;;8.30;97.30;;;;;;4987287;28;20421;-87
2023/12/27 11:32:24;;;;;;;1.63;1.53;;;8.30;97.30;;;;;;4986039;28;20813;-88
2023/12/27 11:34:50;;;;;;;1.10;1.00;;;8.10;97.30;;;;;;4983702;28;20962;-86
2023/12/27 11:37:16;;;;;;;1.10;1.00;;;8.00;97.30;;;;;;4987277;28;20418;-87
2023/12/27 11:39:46;;;;;;;1.93;1.50;;;7.90;97.30;;;;;;4987576;28;20178;-86
2023/12/27 11:42:15;;;;;;;1.30;1.20;;;7.90;97.30;;;;;;4975323;28;20442;-86
2023/12/27 11:44:47;;;;;;;1.57;1.47;;;7.90;97.30;;;;;;4981143;28;20464;-86
2023/12/27 11:47:15;;;;;;;1.57;1.47;;;7.80;97.30;;;;;;4991343;28;20939;-85
2023/12/27 11:49:40;;;;;;;1.80;1.57;;;7.80;97.30;;;;;;4992167;28;20421;-86
2023/12/27 11:52:06;;;;;;;1.73;1.67;;;7.80;97.30;;;;;;4987930;28;20453;-85
2023/12/27 11:54:31;;;;;;;1.80;1.53;;;7.80;97.30;;;;;;4988972;28;20688;-86
2023/12/27 11:56:58;;;;;;;1.57;1.43;;;7.80;97.30;;;;;;4984021;28;20720;-86
2023/12/27 11:59:26;;;;;;;1.23;1.13;;;7.90;97.30;;;;;;4990580;28;20186;-86
2023/12/27 12:01:52;;;;;;;1.20;1.10;;;7.90;97.30;;;;;;4983206;28;20483;-86
2023/12/27 12:04:43;;;;;;;1.60;1.50;;;8.00;97.30;;;;;;4983703;28;20460;-83
2023/12/27 12:07:33;;;;;;;1.40;1.27;;;8.00;97.30;;;;;;4982521;28;20426;-85
2023/12/27 12:09:59;;;;;;;1.10;1.00;;;7.90;97.30;;;;;;4979740;28;20516;-85
2023/12/27 12:12:25;;;;;;;1.20;1.10;;;7.90;97.30;;;;;;4993496;28;20728;-87
2023/12/27 12:14:55;;;;;;;3.10;1.87;;;7.90;97.30;;;;;;4987197;28;20228;-86
2023/12/27 12:17:21;;;;;;;2.73;2.53;;;7.80;97.30;;;;;;4978686;28;20425;-86
2023/12/27 12:19:51;;;;;;;1.87;1.77;;;7.80;97.30;;;;;;4986951;28;20520;-86
2023/12/27 12:22:17;;;;;;;0.97;0.87;;;7.70;97.30;;;;;;4987878;28;20448;-86
2023/12/27 12:24:44;;;;;;;1.20;1.20;;;7.70;97.30;;;;;;4984843;28;20457;-88
2023/12/27 12:27:18;;;;;;;1.00;0.90;;;7.70;97.30;;;;;;4990547;28;20958;-87
2023/12/27 12:29:44;;;;;;;1.13;1.07;;;7.70;97.30;;;;;;4984032;28;20477;-86
2023/12/27 12:32:09;;;;;;;1.17;1.07;;;7.80;97.30;;;;;;4989745;28;20445;-86
2023/12/27 12:34:35;;;;;;;2.20;1.73;;;7.70;97.30;;;;;;4990294;28;20996;-86
2023/12/27 12:37:00;;;;;;;2.07;1.93;;;7.70;97.30;;;;;;4979984;28;20194;-85
2023/12/27 12:39:29;;;;;;;3.50;1.60;;;7.70;97.30;;;;;;4987395;28;20189;-85
2023/12/27 12:41:54;;;;;;;1.70;1.60;;;7.70;97.30;;;;;;4987067;28;20692;-85
2023/12/27 12:44:20;;;;;;;3.23;3.03;;;7.80;97.30;;;;;;4986815;28;20511;-86
2023/12/27 12:46:46;;;;;;;5.20;2.27;;;7.80;97.30;;;;;;4983362;28;20179;-86
2023/12/27 12:49:14;;;;;;;2.10;1.07;;;7.80;97.30;;;;;;4989923;28;20276;-86
2023/12/27 12:51:41;;;;;;;1.20;1.10;;;7.80;97.30;;;;;;4984133;28;20284;-88
2023/12/27 12:54:07;;;;;;;1.27;1.17;;;7.80;97.30;;;;;;4989747;28;20432;-86
2023/12/27 12:56:33;;;;;;;2.70;2.50;;;7.80;97.30;;;;;;4986526;28;20870;-86
2023/12/27 12:58:59;;;;;;;1.60;1.50;;;7.80;97.30;;;;;;4990262;28;20511;-87
2023/12/27 13:01:25;;;;;;;1.83;1.00;;;7.80;97.30;;;;;;4989717;28;20781;-86
2023/12/27 13:03:51;;;;;;;1.63;1.53;;;7.70;97.30;;;;;;4991316;28;20232;-86
2023/12/27 13:06:18;;;;;;;0.93;0.83;;;7.70;97.30;;;;;;4986452;28;20421;-86
2023/12/27 13:08:49;;;;;;;1.00;0.90;;;7.70;97.30;;;;;;4991892;28;20429;-88
2023/12/27 13:11:17;;;;;;;1.40;1.30;;;7.70;97.30;;;;;;4998008;28;20530;-86
2023/12/27 13:13:46;;;;;;;28.07;1.73;;;7.70;97.30;;;;;;4999291;28;20954;-86
2023/12/27 13:16:11;;;;;;;1.20;1.10;;;7.70;97.30;;;;;;4996226;28;20449;-88
2023/12/27 13:18:38;;;;;;;5.13;2.90;;;7.70;97.30;;;;;;4984374;28;20462;-87
2023/12/27 13:21:05;;;;;;;2.47;2.27;;;7.70;97.30;;;;;;4994217;28;20730;-86
2023/12/27 13:23:30;;;;;;;3.50;3.30;;;7.70;97.30;;;;;;4991440;28;20425;-86
2023/12/27 13:25:56;;;;;;;1.50;1.40;;;7.80;97.30;;;;;;4996412;28;20997;-87
2023/12/27 13:28:25;;;;;;;13.33;1.93;;;7.80;97.30;;;;;;4991155;28;20186;-85
2023/12/27 13:30:52;;;;;;;2.50;1.27;;;7.80;97.30;;;;;;4998255;28;20201;-87
2023/12/27 13:33:18;;;;;;;6.00;1.60;;;7.80;97.30;;;;;;5002184;28;20878;-88
2023/12/27 13:35:44;;;;;;;1.40;1.27;;;7.80;97.30;;;;;;4994329;28;20548;-86
2023/12/27 13:38:11;;;;;;;1.40;1.40;;;7.70;97.30;;;;;;4997472;28;20454;-86
2023/12/27 13:40:37;;;;;;;2.97;1.63;;;7.80;97.30;;;;;;4988958;28;20209;-86
2023/12/27 13:43:02;;;;;;;3.63;1.67;;;7.80;97.30;;;;;;4995184;28;20428;-85
2023/12/27 13:45:28;;;;;;;1.10;1.00;;;8.00;97.30;;;;;;4993783;28;20210;-86
2023/12/27 13:47:53;;;;;;;1.20;1.10;;;8.20;97.30;;;;;;4999522;28;20177;-86
2023/12/27 13:50:19;;;;;;;1.00;0.90;;;8.40;97.30;;;;;;4998643;28;20255;-86
2023/12/27 13:52:45;;;;;;;1.23;1.17;;;8.40;97.30;;;;;;4991386;28;20182;-87
2023/12/27 13:55:10;;;;;;;1.50;1.40;;;8.50;97.30;;;;;;4993635;28;20453;-87
2023/12/27 13:57:36;;;;;;;5.07;1.20;;;8.50;97.30;;;;;;4994475;28;20268;-86
2023/12/27 14:00:03;;;;;;;4.00;1.80;;;8.60;97.30;;;;;;4991055;28;20533;-88
2023/12/27 14:02:28;;;;;;;5.33;2.40;;;8.60;97.30;;;;;;4999728;28;20469;-87
2023/12/27 14:04:54;;;;;;;1.00;0.90;;;8.50;97.30;;;;;;5002945;28;20558;-87
2023/12/27 14:07:19;;;;;;;1.40;1.30;;;8.50;97.30;;;;;;4991380;28;20667;-86
2023/12/27 14:09:45;;;;;;;1.10;1.00;;;8.30;97.30;;;;;;4990532;28;20209;-86
2023/12/27 14:12:10;;;;;;;1.10;1.10;;;8.30;97.30;;;;;;4995367;28;20207;-86
2023/12/27 14:14:36;;;;;;;1.10;1.00;;;8.20;97.30;;;;;;4996887;28;20190;-89
2023/12/27 14:17:01;;;;;;;1.60;1.50;;;8.10;97.30;;;;;;4994120;28;20744;-88
2023/12/27 14:19:27;;;;;;;1.20;1.10;;;8.10;97.30;;;;;;4996636;28;20178;-88
2023/12/27 14:21:53;;;;;;;1.10;1.00;;;8.00;97.30;;;;;;4993944;28;20247;-87
2023/12/27 14:24:20;;;;;;;1.20;1.10;;;8.00;97.30;;;;;;4996356;28;20201;-85
2023/12/27 14:26:48;;;;;;;1.50;1.40;;;7.90;97.30;;;;;;4998076;28;20454;-86
2023/12/27 14:29:14;;;;;;;1.23;1.13;;;7.80;97.30;;;;;;5003415;28;20206;-85
2023/12/27 14:31:39;;;;;;;1.43;1.40;;;7.80;97.30;;;;;;4993350;28;20440;-85
2023/12/27 14:34:05;;;;;;;1.30;1.20;;;7.70;97.30;;;;;;4992554;28;20435;-88
2023/12/27 14:36:30;;;;;;;1.53;1.20;;;7.70;97.30;;;;;;4993554;28;20181;-86
2023/12/27 14:39:05;;;;;;;1.30;1.20;;;7.60;97.30;;;;;;4996310;28;20225;-85
2023/12/27 14:41:34;;;;;;;1.83;1.53;;;7.50;97.30;;;;;;4989533;28;20193;-86
2023/12/27 14:44:01;;;;;;;1.77;1.67;;;7.50;97.30;;;;;;5002713;28;20432;-87
2023/12/27 14:46:27;;;;;;;1.37;1.27;;;7.50;97.30;;;;;;4995936;28;20421;-88
2023/12/27 14:48:52;;;;;;;3.37;1.47;;;7.40;97.30;;;;;;4993567;28;20409;-88
2023/12/27 14:51:18;;;;;;;1.73;1.63;;;7.50;97.30;;;;;;4996327;28;20853;-86
2023/12/27 14:53:44;;;;;;;1.93;1.20;;;7.50;97.30;;;;;;4993033;28;20189;-87
2023/12/27 14:56:09;;;;;;;1.83;1.73;;;7.50;97.30;;;;;;4997778;28;20186;-86
2023/12/27 14:58:35;;;;;;;1.53;1.10;;;7.40;97.30;;;;;;5000342;28;20196;-85
2023/12/27 15:01:00;;;;;;;1.37;1.27;;;7.40;97.30;;;;;;4999916;28;20234;-85
2023/12/27 15:03:28;;;;;;;1.30;1.20;;;7.30;97.30;;;;;;4991207;28;20562;-86
2023/12/27 15:05:53;;;;;;;0.90;0.80;;;7.30;97.30;;;;;;4986507;28;20204;-86
2023/12/27 15:08:19;;;;;;;4.30;1.80;;;7.30;97.30;;;;;;4987713;28;20425;-86
2023/12/27 15:10:47;;;;;;;6.63;2.53;;;7.30;97.30;;;;;;4984600;28;20197;-86
2023/12/27 15:13:12;;;;;;;4.30;2.10;;;7.30;97.30;;;;;;4994469;28;20182;-86
2023/12/27 15:15:38;;;;;;;1.17;1.07;;;7.30;97.30;;;;;;4998765;28;20439;-86
2023/12/27 15:18:06;;;;;;;1.60;1.50;;;7.20;97.30;;;;;;4999048;28;20216;-87
2023/12/27 15:20:35;;;;;;;1.10;1.00;;;7.20;97.30;;;;;;4991536;28;20617;-87
2023/12/27 15:23:01;;;;;;;1.40;1.30;;;7.10;97.30;;;;;;4992517;28;20987;-86
2023/12/27 15:25:27;;;;;;;1.23;1.17;;;7.00;97.30;;;;;;4995032;28;20468;-85
2023/12/27 15:27:53;;;;;;;1.60;1.50;;;7.00;97.30;;;;;;4994079;28;20479;-86
2023/12/27 15:30:19;;;;;;;5.93;1.90;;;6.90;97.30;;;;;;4995694;28;20412;-87
2023/12/27 15:32:44;;;;;;;1.60;1.50;;;6.90;97.30;;;;;;4992648;28;20205;-88
2023/12/27 15:35:10;;;;;;;1.50;1.40;;;6.90;97.30;;;;;;4993688;28;20232;-87
2023/12/27 15:37:35;;;;;;;1.13;1.03;;;6.90;97.30;;;;;;4998430;28;20177;-86
2023/12/27 15:40:03;;;;;;;3.63;1.43;;;6.80;97.30;;;;;;4997075;28;20186;-86
2023/12/27 15:42:29;;;;;;;7.57;1.93;;;6.80;97.30;;;;;;4991878;28;20240;-87
2023/12/27 15:44:54;;;;;;;1.33;1.27;;;6.80;97.30;;;;;;4996887;28;20533;-86
2023/12/27 15:47:20;;;;;;;1.87;1.77;;;6.80;97.30;;;;;;4995151;28;20651;-86
2023/12/27 15:49:45;;;;;;;1.53;1.43;;;6.80;97.30;;;;;;4994029;28;20185;-87
2023/12/27 15:52:11;;;;;;;2.10;1.60;;;6.80;97.30;;;;;;4995359;28;20197;-87
2023/12/27 15:54:36;;;;;;;2.50;1.67;;;6.80;97.30;;;;;;4989964;28;20195;-87
2023/12/27 15:57:03;;;;;;;2.73;2.00;;;6.70;97.30;;;;;;4992705;28;20186;-87
2023/12/27 15:59:30;;;;;;;1.63;1.53;;;6.70;97.30;;;;;;5014936;23;20190;-61
2023/12/27 16:01:56;;;;;;;2.63;1.83;;;6.70;97.30;;;;;;4988070;28;20761;-62
2023/12/27 16:04:22;;;;;;;2.13;1.40;;;6.70;97.30;;;;;;4984930;28;21230;-62
2023/12/27 16:06:48;;;;;;;1.40;1.30;;;6.70;97.30;;;;;;4990239;28;20496;-61
2023/12/27 16:09:14;;;;;;;1.70;1.60;;;6.60;97.30;;;;;;4987522;28;20512;-61
2023/12/27 16:11:43;;;;;;;2.80;2.20;;;6.60;97.30;;;;;;4987706;28;21009;-62
2023/12/27 16:14:09;;;;;;;2.27;2.07;;;6.60;97.30;;;;;;4991998;28;20453;-61
2023/12/27 16:16:35;;;;;;;1.70;1.60;;;6.60;97.30;;;;;;4989969;28;20421;-61
2023/12/27 16:19:00;;;;;;;5.50;2.23;;;6.60;97.30;;;;;;4989716;28;20788;-62
2023/12/27 16:21:26;;;;;;;2.10;1.90;;;6.60;97.30;;;;;;4988910;28;20194;-61
2023/12/27 16:23:51;;;;;;;1.77;1.50;;;6.60;97.30;;;;;;4993195;28;20213;-61
2023/12/27 16:26:19;;;;;;;3.27;2.17;;;6.60;97.30;;;;;;4995689;28;20186;-64
2023/12/27 16:28:46;;;;;;;1.20;1.10;;;6.60;97.30;;;;;;4988971;28;20181;-62
2023/12/27 16:31:12;;;;;;;2.37;2.17;;;6.60;97.30;;;;;;4989984;28;20777;-62
2023/12/27 16:33:38;;;;;;;2.10;1.43;;;6.60;97.30;;;;;;4987916;28;20425;-62
2023/12/27 16:36:04;;;;;;;2.93;1.90;;;6.60;97.30;;;;;;4992158;28;20475;-62
2023/12/27 16:38:30;;;;;;;1.73;1.63;;;6.60;97.30;;;;;;4995515;28;20244;-62
2023/12/27 16:41:03;;;;;;;3.53;1.63;;;6.70;97.30;;;;;;4985258;28;20452;-61
2023/12/27 16:43:32;;;;;;;3.10;1.90;;;6.70;97.30;;;;;;4990121;28;20806;-61
2023/12/27 16:46:04;;;;;;;27.50;3.67;;;6.70;97.30;;;;;;4994740;28;20478;-62
2023/12/27 16:48:30;;;;;;;1.50;1.40;;;6.70;97.30;;;;;;4985820;28;20432;-61
2023/12/27 16:50:56;;;;;;;1.77;1.67;;;6.70;97.30;;;;;;4993083;28;20545;-60
2023/12/27 16:53:22;;;;;;;7.23;1.70;;;6.70;97.30;;;;;;4989632;28;20184;-61
2023/12/27 16:55:48;;;;;;;6.87;3.63;;;6.70;97.30;;;;;;4989356;28;20425;-62
2023/12/27 16:58:15;;;;;;;6.50;1.90;;;6.80;97.30;;;;;;4993199;28;20204;-62
2023/12/27 17:00:40;;;;;;;2.50;1.90;;;6.80;97.30;;;;;;4992245;28;20476;-61
2023/12/27 17:03:08;;;;;;;2.30;1.97;;;6.80;97.30;;;;;;4992622;28;20800;-62
2023/12/27 17:05:34;;;;;;;3.47;2.80;;;6.80;97.30;;;;;;4987341;28;20229;-62
2023/12/27 17:08:04;;;;;;;2.37;2.17;;;6.70;97.30;;;;;;5013719;28;20463;-62
2023/12/27 17:10:30;;;;;;;1.73;1.63;;;6.70;97.30;;;;;;4978351;28;20533;-62
2023/12/27 17:12:57;;;;;;;3.90;1.50;;;6.70;97.30;;;;;;4988874;28;20443;-62
2023/12/27 17:15:23;;;;;;;1.83;1.23;;;6.70;97.30;;;;;;4987753;28;20421;-61
2023/12/27 17:17:49;;;;;;;5.83;2.40;;;6.70;97.30;;;;;;4990971;28;20816;-62
2023/12/27 17:20:15;;;;;;;1.10;1.10;;;6.70;97.30;;;;;;4987542;28;20197;-62
2023/12/27 17:22:41;;;;;;;3.37;2.97;;;6.70;97.30;;;;;;4988773;28;20421;-61
2023/12/27 17:25:10;;;;;;;2.17;2.00;;;6.70;97.30;;;;;;4990750;28;20275;-62
2023/12/27 17:27:37;;;;;;;2.47;2.27;;;6.70;97.30;;;;;;4989564;28;20270;-62
2023/12/27 17:30:03;;;;;;;1.50;1.40;;;6.70;97.30;;;;;;4994831;28;20446;-62
2023/12/27 17:32:29;;;;;;;1.10;1.00;;;6.70;97.30;;;;;;4987259;28;20452;-62
2023/12/27 17:34:55;;;;;;;1.30;1.20;;;6.70;97.30;;;;;;4997211;28;20440;-61
2023/12/27 17:37:21;;;;;;;1.37;1.27;;;6.70;97.30;;;;;;4987208;28;20192;-61
2023/12/27 17:39:46;;;;;;;3.67;3.00;;;6.70;97.30;;;;;;4999781;28;20786;-61
2023/12/27 17:42:12;;;;;;;1.53;1.53;;;6.60;97.30;;;;;;4986924;28;20201;-61
2023/12/27 17:44:37;;;;;;;16.67;4.03;;;6.60;97.30;;;;;;4990294;28;20205;-62
2023/12/27 17:47:03;;;;;;;1.20;1.10;;;6.60;97.30;;;;;;4991665;28;20180;-62
2023/12/27 17:49:29;;;;;;;2.13;1.93;;;6.60;97.30;;;;;;4990676;28;20174;-62
2023/12/27 17:51:55;;;;;;;1.43;1.33;;;6.60;97.30;;;;;;4990646;28;20580;-62
2023/12/27 17:54:20;;;;;;;3.13;1.73;;;6.60;97.30;;;;;;4989048;28;20433;-62